Schedule -- Season 73
Date/Time Away team Status Home team
8/8/2026 7:00:00 PM 4 Pacers Bulls II 5 PowæRangers
8/11/2026 11:00:00 AM 3 Liverpool Padel Team 4 Pacers Bulls II
8/12/2026 12:35:00 PM 7762 Pacers Bulls II 8588 Hegemonia Białystok BBM
8/13/2026 11:00:00 AM 1481 Stardom Slammers 715 Pacers Bulls II C
8/15/2026 2:00:00 PM 5 Pacers Bulls II 2 CA thibérien
8/18/2026 11:00:00 AM 2 Paterkes Reloaded 5 Pacers Bulls II
8/19/2026 11:00:00 AM 14686 Caiçara AC 7668 Pacers Bulls II BBM
8/20/2026 11:00:00 AM 371 ZBW Diavoli UK II 696 Pacers Bulls II C
8/22/2026 11:00:00 AM 6 TeamDobby II 4 Pacers Bulls II
8/25/2026 7:00:00 PM 4 Pacers Bulls II 8 Australia Phoenix TV
8/26/2026 11:00:00 AM 7252 HR Basket Club 7673 Pacers Bulls II BBM
8/27/2026 2:00:00 PM 674 Pacers Bulls II 680 Malaga City C
8/29/2026 10:30:00 AM 3 Pacers Bulls II 5 BC Svetimi
9/1/2026 11:00:00 AM 4 Siradzije 2 Pacers Bulls II
9/2/2026 2:30:00 PM 7877 Pacers Bulls II 13236 Quarteira Basket BBM
9/5/2026 2:00:00 AM 2 Pacers Bulls II 2 The Piranhas
9/8/2026 11:00:00 AM 3 Trenchtown gangsters 2 Pacers Bulls II
9/12/2026 6:00:00 AM 2 Pacers Bulls II 5 抽象队
9/15/2026 11:00:00 AM 8 Derry Huskies 2 Pacers Bulls II
9/19/2026 10:30:00 AM 2 Pacers Bulls II 1 Elkaaria Grasshoppers TV
9/23/2026 9:00:00 PM Big 8 Great 8
9/26/2026 11:00:00 AM 6 Rumat Terot 2 Pacers Bulls II
9/29/2026 7:00:00 PM 2 Pacers Bulls II 7 North York Pasta & Pizza
10/3/2026 11:00:00 AM 7 PowæRangers 2 Pacers Bulls II
10/6/2026 10:00:00 AM 2 Pacers Bulls II 1 Liverpool Padel Team
10/10/2026 11:00:00 AM 3 CA thibérien 2 Pacers Bulls II
10/13/2026 1:35:00 PM 2 Pacers Bulls II 4 Paterkes Reloaded
10/17/2026 2:30:00 PM 2 Pacers Bulls II 5 TeamDobby II
10/20/2026 11:00:00 AM 8 Australia Phoenix 2 Pacers Bulls II
10/24/2026 11:00:00 AM 6 BC Svetimi 2 Pacers Bulls II TV
C: Cup TV: Televised BBM: BuzzerBeater Madness
Advertisement